createdAt,value
2024-02-19T00:00:47.281Z,84.17
2024-02-19T00:01:47.314Z,84.07
2024-02-19T00:02:47.198Z,84.07
2024-02-19T00:03:47.296Z,84.07
2024-02-19T00:04:47.374Z,83.97
2024-02-19T00:05:47.199Z,83.87
2024-02-19T00:06:47.257Z,83.87
2024-02-19T00:07:47.230Z,84.11
2024-02-19T00:08:47.145Z,84.22
2024-02-19T00:09:47.254Z,84.22
2024-02-19T00:10:47.130Z,84.17
2024-02-19T00:11:47.130Z,84.11
2024-02-19T00:12:47.128Z,84.22
2024-02-19T00:13:47.097Z,84.22
2024-02-19T00:14:47.100Z,84.31
2024-02-19T00:15:47.089Z,84.22
2024-02-19T00:16:47.053Z,84.22
2024-02-19T00:17:47.093Z,84.22
2024-02-19T00:18:47.159Z,84.22
2024-02-19T00:19:47.055Z,84.42
2024-02-19T00:20:47.012Z,84.42
2024-02-19T00:21:47.032Z,84.31
2024-02-19T00:22:46.992Z,84.31
2024-02-19T00:23:47.014Z,84.31
2024-02-19T00:24:46.991Z,84.42
2024-02-19T00:25:46.955Z,84.31
2024-02-19T00:26:46.940Z,83.81
2024-02-19T00:27:47.009Z,83.81
2024-02-19T00:28:46.948Z,83.81
2024-02-19T00:29:46.920Z,84.01
2024-02-19T00:30:46.944Z,84.01
2024-02-19T00:31:46.890Z,83.81
2024-02-19T00:32:47.002Z,83.60
2024-02-19T00:33:47.000Z,83.60
2024-02-19T00:34:46.916Z,83.50
2024-02-19T00:35:46.847Z,83.29
2024-02-19T00:36:46.855Z,83.09
2024-02-19T00:37:46.844Z,83.09
2024-02-19T00:38:46.833Z,82.98
2024-02-19T00:39:46.863Z,82.98
2024-02-19T00:40:46.820Z,82.68
2024-02-19T00:41:46.796Z,82.68
2024-02-19T00:42:46.890Z,82.57
2024-02-19T00:43:46.764Z,82.48
2024-02-19T00:44:46.760Z,82.57
2024-02-19T00:45:46.761Z,82.57
2024-02-19T00:46:46.743Z,82.68
2024-02-19T00:47:46.739Z,82.57
2024-02-19T00:48:46.770Z,82.57
2024-02-19T00:49:46.812Z,82.27
2024-02-19T00:50:46.698Z,82.17
2024-02-19T00:51:46.714Z,82.17
2024-02-19T00:52:46.668Z,82.17
2024-02-19T00:53:46.653Z,82.17
2024-02-19T00:54:46.714Z,82.07
2024-02-19T00:55:46.643Z,82.27
2024-02-19T00:56:46.647Z,82.27
2024-02-19T00:57:46.633Z,82.27
2024-02-19T00:58:46.608Z,82.27
2024-02-19T00:59:46.580Z,82.27
2024-02-19T01:00:46.641Z,82.27
2024-02-19T01:01:46.709Z,82.27
2024-02-19T01:02:46.560Z,82.37
2024-02-19T01:03:46.600Z,82.27
2024-02-19T01:04:46.617Z,82.07
2024-02-19T01:05:46.566Z,82.07
2024-02-19T01:06:46.533Z,82.27
2024-02-19T01:07:46.505Z,82.27
2024-02-19T01:08:46.497Z,82.27
2024-02-19T01:09:46.532Z,82.27
2024-02-19T01:10:46.522Z,82.17
2024-02-19T01:11:46.474Z,82.07
2024-02-19T01:12:46.467Z,82.17
2024-02-19T01:13:46.431Z,82.07
2024-02-19T01:14:46.460Z,81.56
2024-02-19T01:15:46.474Z,81.65
2024-02-19T01:16:46.414Z,81.65
2024-02-19T01:17:46.430Z,81.86
2024-02-19T01:18:46.472Z,81.86
2024-02-19T01:19:46.532Z,81.86
2024-02-19T01:20:46.375Z,81.76
2024-02-19T01:21:46.419Z,81.65
2024-02-19T01:22:46.354Z,81.35
2024-02-19T01:23:46.343Z,81.24
2024-02-19T01:24:46.420Z,81.35
2024-02-19T01:25:46.344Z,81.45
2024-02-19T01:26:46.307Z,81.45
2024-02-19T01:27:46.335Z,81.35
2024-02-19T01:28:46.293Z,81.24
2024-02-19T01:29:46.265Z,81.24
2024-02-19T01:30:46.274Z,81.15
2024-02-19T01:31:46.244Z,81.35
2024-02-19T01:32:46.264Z,81.15
2024-02-19T01:33:46.295Z,81.15
2024-02-19T01:34:46.358Z,81.15
2024-02-19T01:35:46.245Z,80.94
2024-02-19T01:36:46.237Z,80.94
2024-02-19T01:37:46.193Z,80.83
2024-02-19T01:38:46.203Z,80.83
2024-02-19T01:39:46.184Z,81.04
2024-02-19T01:40:46.163Z,81.15
2024-02-19T01:41:46.147Z,81.15
2024-02-19T01:42:46.262Z,81.04
2024-02-19T01:43:46.116Z,80.53
2024-02-19T01:44:46.172Z,80.63
2024-02-19T01:45:46.169Z,80.43
2024-02-19T01:46:46.088Z,80.33
2024-02-19T01:47:46.093Z,80.43
2024-02-19T01:48:46.231Z,80.43
2024-02-19T01:49:46.274Z,80.63
2024-02-19T01:50:46.045Z,80.63
2024-02-19T01:51:46.050Z,80.63
2024-02-19T01:52:46.034Z,80.43
2024-02-19T01:53:46.050Z,80.43
2024-02-19T01:54:46.038Z,80.53
2024-02-19T01:55:45.998Z,80.33
2024-02-19T01:56:45.998Z,80.02
2024-02-19T01:57:46.021Z,79.96
2024-02-19T01:58:45.959Z,80.12
2024-02-19T01:59:45.950Z,79.85
2024-02-19T02:00:46.176Z,79.85
2024-02-19T02:01:46.006Z,79.64
2024-02-19T02:02:45.980Z,79.85
2024-02-19T02:03:45.927Z,79.64
2024-02-19T02:04:45.932Z,79.85
2024-02-19T02:05:45.919Z,79.85
2024-02-19T02:06:45.921Z,79.64
2024-02-19T02:07:45.891Z,79.54
2024-02-19T02:08:45.878Z,79.54
2024-02-19T02:09:45.893Z,79.54
2024-02-19T02:10:45.863Z,79.75
2024-02-19T02:11:45.819Z,79.85
2024-02-19T02:12:45.876Z,79.75
2024-02-19T02:13:45.793Z,79.44
2024-02-19T02:14:45.801Z,79.44
2024-02-19T02:15:45.797Z,79.44
2024-02-19T02:16:45.772Z,79.54
2024-02-19T02:17:45.810Z,79.64
2024-02-19T02:18:45.796Z,79.54
2024-02-19T02:19:45.814Z,79.44
2024-02-19T02:20:45.719Z,79.44
2024-02-19T02:21:45.854Z,79.54
2024-02-19T02:22:45.709Z,79.44
2024-02-19T02:23:45.683Z,79.54
2024-02-19T02:24:45.699Z,79.44
2024-02-19T02:25:45.673Z,79.64
2024-02-19T02:26:45.665Z,79.64
2024-02-19T02:27:45.673Z,79.54
2024-02-19T02:28:45.634Z,79.54
2024-02-19T02:29:45.631Z,79.64
2024-02-19T02:30:45.659Z,79.64
2024-02-19T02:31:45.618Z,79.75
2024-02-19T02:32:45.606Z,79.64
2024-02-19T02:33:45.794Z,79.54
2024-02-19T02:34:45.633Z,79.61
2024-02-19T02:35:45.568Z,79.41
2024-02-19T02:36:45.574Z,79.50
2024-02-19T02:37:45.542Z,79.41
2024-02-19T02:38:45.560Z,79.41
2024-02-19T02:39:45.557Z,79.41
2024-02-19T02:40:45.505Z,79.41
2024-02-19T02:41:45.503Z,79.10
2024-02-19T02:42:45.537Z,79.00
2024-02-19T02:43:45.483Z,78.79
2024-02-19T02:44:45.467Z,78.69
2024-02-19T02:45:45.488Z,78.79
2024-02-19T02:46:45.456Z,78.59
2024-02-19T02:47:45.449Z,78.59
2024-02-19T02:48:45.672Z,78.49
2024-02-19T02:49:45.429Z,78.59
2024-02-19T02:50:45.404Z,78.38
2024-02-19T02:51:45.426Z,78.49
2024-02-19T02:52:45.399Z,78.49
2024-02-19T02:53:45.371Z,78.28
2024-02-19T02:54:45.383Z,78.49
2024-02-19T02:55:45.345Z,78.63
2024-02-19T02:56:45.357Z,78.01
2024-02-19T02:57:45.408Z,78.11
2024-02-19T02:58:45.325Z,77.70
2024-02-19T02:59:45.300Z,77.50
2024-02-19T03:00:45.388Z,77.70
2024-02-19T03:01:45.410Z,77.80
2024-02-19T03:02:45.273Z,77.50
2024-02-19T03:03:45.306Z,77.60
2024-02-19T03:04:45.309Z,77.19
2024-02-19T03:05:45.241Z,77.39
2024-02-19T03:06:45.340Z,77.26
2024-02-19T03:07:45.288Z,77.19
2024-02-19T03:08:45.228Z,77.09
2024-02-19T03:09:45.238Z,76.84
2024-02-19T03:10:45.228Z,77.05
2024-02-19T03:11:45.184Z,76.84
2024-02-19T03:12:45.241Z,76.84
2024-02-19T03:13:45.164Z,76.64
2024-02-19T03:14:45.155Z,76.43
2024-02-19T03:15:45.302Z,76.43
2024-02-19T03:16:45.156Z,76.43
2024-02-19T03:17:45.194Z,76.54
2024-02-19T03:18:45.191Z,76.54
2024-02-19T03:19:45.185Z,76.43
2024-02-19T03:20:45.113Z,76.64
2024-02-19T03:21:45.167Z,76.54
2024-02-19T03:22:45.060Z,76.43
2024-02-19T03:23:45.049Z,76.43
2024-02-19T03:24:45.070Z,76.23
2024-02-19T03:25:45.027Z,76.34
2024-02-19T03:26:45.011Z,76.54
2024-02-19T03:27:45.047Z,76.54
2024-02-19T03:28:45.019Z,76.54
2024-02-19T03:29:44.987Z,76.64
2024-02-19T03:30:45.035Z,76.43
2024-02-19T03:31:44.984Z,76.43
2024-02-19T03:32:45.016Z,76.34
2024-02-19T03:33:45.129Z,76.43
2024-02-19T03:34:44.963Z,76.43
2024-02-19T03:35:44.913Z,76.43
2024-02-19T03:36:44.946Z,76.54
2024-02-19T03:37:44.898Z,76.54
2024-02-19T03:38:44.889Z,76.75
2024-02-19T03:39:44.924Z,76.78
2024-02-19T03:40:44.882Z,76.88
2024-02-19T03:41:44.855Z,76.98
2024-02-19T03:42:44.860Z,77.09
2024-02-19T03:43:44.837Z,77.19
2024-02-19T03:44:44.826Z,77.09
2024-02-19T03:45:44.860Z,77.05
2024-02-19T03:46:44.804Z,77.26
2024-02-19T03:47:44.832Z,77.15
2024-02-19T03:48:44.853Z,77.15
2024-02-19T03:49:44.812Z,77.15
2024-02-19T03:50:44.764Z,77.05
2024-02-19T03:51:44.766Z,76.95
2024-02-19T03:52:44.746Z,76.95
2024-02-19T03:53:44.741Z,76.95
2024-02-19T03:54:44.821Z,77.05
2024-02-19T03:55:44.698Z,77.05
2024-02-19T03:56:44.691Z,77.15
2024-02-19T03:57:44.724Z,77.26
2024-02-19T03:58:44.695Z,77.26
2024-02-19T03:59:44.673Z,77.36
2024-02-19T04:00:44.732Z,77.46
2024-02-19T04:01:44.757Z,77.56
2024-02-19T04:02:44.664Z,77.67
2024-02-19T04:03:44.652Z,77.67
2024-02-19T04:04:44.772Z,77.67
2024-02-19T04:05:44.608Z,77.76
2024-02-19T04:06:44.673Z,77.76
2024-02-19T04:07:44.607Z,77.87
2024-02-19T04:08:44.575Z,77.87
2024-02-19T04:09:44.636Z,77.76
2024-02-19T04:10:44.551Z,77.97
2024-02-19T04:11:44.571Z,78.08
2024-02-19T04:12:44.566Z,78.17
2024-02-19T04:13:44.508Z,78.08
2024-02-19T04:14:44.501Z,78.17
2024-02-19T04:15:44.513Z,78.17
2024-02-19T04:16:44.492Z,78.28
2024-02-19T04:17:44.493Z,78.28
2024-02-19T04:18:44.613Z,78.38
2024-02-19T04:19:44.665Z,78.28
2024-02-19T04:20:44.451Z,78.49
2024-02-19T04:21:44.469Z,78.49
2024-02-19T04:22:44.415Z,78.49
2024-02-19T04:23:44.404Z,78.49
2024-02-19T04:24:44.416Z,78.49
2024-02-19T04:25:44.406Z,78.38
2024-02-19T04:26:44.370Z,78.38
2024-02-19T04:27:44.374Z,78.28
2024-02-19T04:28:44.347Z,78.28
2024-02-19T04:29:44.335Z,78.17
2024-02-19T04:30:44.357Z,78.28
2024-02-19T04:31:44.328Z,78.38
2024-02-19T04:32:44.424Z,78.38
2024-02-19T04:33:44.459Z,78.38
2024-02-19T04:34:44.331Z,78.38
2024-02-19T04:35:44.281Z,78.38
2024-02-19T04:36:44.293Z,78.38
2024-02-19T04:37:44.248Z,78.49
2024-02-19T04:38:44.269Z,78.38
2024-02-19T04:39:44.287Z,78.49
2024-02-19T04:40:44.217Z,78.59
2024-02-19T04:41:44.220Z,78.59
2024-02-19T04:42:44.256Z,78.59
2024-02-19T04:43:44.185Z,78.49
2024-02-19T04:44:44.200Z,78.49
2024-02-19T04:45:44.191Z,78.49
2024-02-19T04:46:44.161Z,78.49
2024-02-19T04:47:44.150Z,78.28
2024-02-19T04:48:44.182Z,78.38
2024-02-19T04:49:44.173Z,78.38
2024-02-19T04:50:44.114Z,78.28
2024-02-19T04:51:44.148Z,78.28
2024-02-19T04:52:44.084Z,78.17
2024-02-19T04:53:44.102Z,78.17
2024-02-19T04:54:44.086Z,78.17
2024-02-19T04:55:44.060Z,78.08
2024-02-19T04:56:44.041Z,78.08
2024-02-19T04:57:44.104Z,77.87
2024-02-19T04:58:44.032Z,77.97
2024-02-19T04:59:44.042Z,78.08
2024-02-19T05:00:44.057Z,78.08
2024-02-19T05:01:44.085Z,78.08
2024-02-19T05:02:43.983Z,77.97
2024-02-19T05:03:44.022Z,77.97
2024-02-19T05:04:44.040Z,77.97
2024-02-19T05:05:43.980Z,77.87
2024-02-19T05:06:43.981Z,77.87
2024-02-19T05:07:43.972Z,77.76
2024-02-19T05:08:43.936Z,77.76
2024-02-19T05:09:43.915Z,77.67
2024-02-19T05:10:43.947Z,77.67
2024-02-19T05:11:43.887Z,77.67
2024-02-19T05:12:43.903Z,77.76
2024-02-19T05:13:43.872Z,77.80
2024-02-19T05:14:43.868Z,77.91
2024-02-19T05:15:43.899Z,78.01
2024-02-19T05:16:43.829Z,78.01
2024-02-19T05:17:43.862Z,77.91
2024-02-19T05:18:43.896Z,77.91
2024-02-19T05:19:43.841Z,77.91
2024-02-19T05:20:43.784Z,77.97
2024-02-19T05:21:43.844Z,77.87
2024-02-19T05:22:43.773Z,77.76
2024-02-19T05:23:43.764Z,77.56
2024-02-19T05:24:43.764Z,77.67
2024-02-19T05:25:43.752Z,77.67
2024-02-19T05:26:43.739Z,77.67
2024-02-19T05:27:43.744Z,77.67
2024-02-19T05:28:43.704Z,77.56
2024-02-19T05:29:43.691Z,77.56
2024-02-19T05:30:43.813Z,77.67
2024-02-19T05:31:43.702Z,77.56
2024-02-19T05:32:43.668Z,77.67
2024-02-19T05:33:43.729Z,77.67
2024-02-19T05:34:43.706Z,77.67
2024-02-19T05:35:43.830Z,77.67
2024-02-19T05:36:43.674Z,77.67
2024-02-19T05:37:43.653Z,77.67
2024-02-19T05:38:43.592Z,77.67
2024-02-19T05:39:43.656Z,77.67
2024-02-19T05:40:43.594Z,77.67
2024-02-19T05:41:43.583Z,77.67
2024-02-19T05:42:43.576Z,77.56
2024-02-19T05:43:43.547Z,77.46
2024-02-19T05:44:43.544Z,77.67
2024-02-19T05:45:43.623Z,77.76
2024-02-19T05:46:43.507Z,77.76
2024-02-19T05:47:43.558Z,77.87
2024-02-19T05:48:43.623Z,77.87
2024-02-19T05:49:46.143Z,77.76
2024-02-19T05:50:43.473Z,77.76
2024-02-19T05:51:43.515Z,77.76
2024-02-19T05:52:43.445Z,77.87
2024-02-19T05:53:43.493Z,77.87
2024-02-19T05:54:43.452Z,77.87
2024-02-19T05:55:43.412Z,77.97
2024-02-19T05:56:43.403Z,77.97
2024-02-19T05:57:43.409Z,77.97
2024-02-19T05:58:43.388Z,77.97
2024-02-19T05:59:43.381Z,77.87
2024-02-19T06:00:43.472Z,77.97
2024-02-19T06:01:43.526Z,77.97
2024-02-19T06:02:43.537Z,77.97
2024-02-19T06:03:43.441Z,77.97
2024-02-19T06:04:43.417Z,77.87
2024-02-19T06:05:43.314Z,77.87
2024-02-19T06:06:43.380Z,77.87
2024-02-19T06:07:43.347Z,77.97
2024-02-19T06:08:43.297Z,77.97
2024-02-19T06:09:43.323Z,77.87
2024-02-19T06:10:43.253Z,77.87
2024-02-19T06:11:43.260Z,77.87
2024-02-19T06:12:43.297Z,77.97
2024-02-19T06:13:43.235Z,77.97
2024-02-19T06:14:43.208Z,78.08
2024-02-19T06:15:43.245Z,78.08
2024-02-19T06:16:43.202Z,78.17
2024-02-19T06:17:43.234Z,78.17
2024-02-19T06:18:43.262Z,78.28
2024-02-19T06:19:43.337Z,78.28
2024-02-19T06:20:43.147Z,78.17
2024-02-19T06:21:43.254Z,78.28
2024-02-19T06:22:43.143Z,78.28
2024-02-19T06:23:43.116Z,78.42
2024-02-19T06:24:43.138Z,78.52
2024-02-19T06:25:43.110Z,78.52
2024-02-19T06:26:43.091Z,78.52
2024-02-19T06:27:43.165Z,78.42
2024-02-19T06:28:43.083Z,78.21
2024-02-19T06:29:43.053Z,78.31
2024-02-19T06:30:43.070Z,78.42
2024-02-19T06:31:43.041Z,78.31
2024-02-19T06:32:43.028Z,78.42
2024-02-19T06:33:43.272Z,78.42
2024-02-19T06:34:44.744Z,78.42
2024-02-19T06:35:42.989Z,78.52
2024-02-19T06:36:43.063Z,78.49
2024-02-19T06:37:42.970Z,78.42
2024-02-19T06:38:42.953Z,78.28
2024-02-19T06:39:42.976Z,78.31
2024-02-19T06:40:42.934Z,78.42
2024-02-19T06:41:42.942Z,78.31
2024-02-19T06:42:42.947Z,78.31
2024-02-19T06:43:42.924Z,78.42
2024-02-19T06:44:42.884Z,78.52
2024-02-19T06:45:42.963Z,78.63
2024-02-19T06:46:42.879Z,78.52
2024-02-19T06:47:42.882Z,78.63
2024-02-19T06:48:42.954Z,78.49
2024-02-19T06:49:42.903Z,78.42
2024-02-19T06:50:42.833Z,78.49
2024-02-19T06:51:42.888Z,78.49
2024-02-19T06:52:42.799Z,78.49
2024-02-19T06:53:42.790Z,78.31
2024-02-19T06:54:42.834Z,78.17
2024-02-19T06:55:42.785Z,78.28
2024-02-19T06:56:42.762Z,78.28
2024-02-19T06:57:42.915Z,78.17
2024-02-19T06:58:42.735Z,78.17
2024-02-19T06:59:42.732Z,78.17
2024-02-19T07:00:42.876Z,78.17
2024-02-19T07:01:42.844Z,77.97
2024-02-19T07:02:42.694Z,78.08
2024-02-19T07:03:42.748Z,78.28
2024-02-19T07:04:42.806Z,78.38
2024-02-19T07:05:42.708Z,78.28
2024-02-19T07:06:42.705Z,78.28
2024-02-19T07:07:42.642Z,78.28
2024-02-19T07:08:42.629Z,78.28
2024-02-19T07:09:43.556Z,78.17
2024-02-19T07:10:42.755Z,78.08
2024-02-19T07:11:42.644Z,78.17
2024-02-19T07:12:42.629Z,78.17
2024-02-19T07:13:42.609Z,78.08
2024-02-19T07:14:42.591Z,78.08
2024-02-19T07:15:42.588Z,78.28
2024-02-19T07:16:42.543Z,77.97
2024-02-19T07:17:42.570Z,77.97
2024-02-19T07:18:42.616Z,78.08
2024-02-19T07:19:42.697Z,78.08
2024-02-19T07:20:42.506Z,78.08
2024-02-19T07:21:42.537Z,78.08
2024-02-19T07:22:42.479Z,78.08
2024-02-19T07:23:42.485Z,77.97
2024-02-19T07:24:42.497Z,77.97
2024-02-19T07:25:42.479Z,77.87
2024-02-19T07:26:42.446Z,77.76
2024-02-19T07:27:42.485Z,77.76
2024-02-19T07:28:42.438Z,77.73
2024-02-19T07:29:42.437Z,77.73
2024-02-19T07:30:42.435Z,77.73
2024-02-19T07:31:42.392Z,77.73
2024-02-19T07:32:42.595Z,77.63
2024-02-19T07:33:42.554Z,77.63
2024-02-19T07:34:44.390Z,77.63
2024-02-19T07:35:42.343Z,77.73
2024-02-19T07:36:42.344Z,77.73
2024-02-19T07:37:42.336Z,77.73
2024-02-19T07:38:42.320Z,77.83
2024-02-19T07:39:42.340Z,77.94
2024-02-19T07:40:42.316Z,77.94
2024-02-19T07:41:42.289Z,77.83
2024-02-19T07:42:42.281Z,77.94
2024-02-19T07:43:42.263Z,77.94
2024-02-19T07:44:42.235Z,77.94
2024-02-19T07:45:42.318Z,77.94
2024-02-19T07:46:42.238Z,77.94
2024-02-19T07:47:42.268Z,77.94
2024-02-19T07:48:42.366Z,77.94
2024-02-19T07:49:42.322Z,77.83
2024-02-19T07:50:42.176Z,77.73
2024-02-19T07:51:42.255Z,77.63
2024-02-19T07:52:42.152Z,77.42
2024-02-19T07:53:42.169Z,77.22
2024-02-19T07:54:42.194Z,77.32
2024-02-19T07:55:42.168Z,77.32
2024-02-19T07:56:42.127Z,77.22
2024-02-19T07:57:42.122Z,77.39
2024-02-19T07:58:42.093Z,77.59
2024-02-19T07:59:42.080Z,77.70
2024-02-19T08:00:42.130Z,77.59
2024-02-19T08:01:42.204Z,77.49
2024-02-19T08:02:42.047Z,77.19
2024-02-19T08:03:42.125Z,77.08
2024-02-19T08:04:42.119Z,77.19
2024-02-19T08:05:42.056Z,77.29
2024-02-19T08:06:42.323Z,77.29
2024-02-19T08:07:42.071Z,77.39
2024-02-19T08:08:42.002Z,77.19
2024-02-19T08:09:42.012Z,76.98
2024-02-19T08:10:41.976Z,76.94
2024-02-19T08:11:42.060Z,76.84
2024-02-19T08:12:43.561Z,77.04
2024-02-19T08:13:42.078Z,76.74
2024-02-19T08:14:41.952Z,76.43
2024-02-19T08:15:41.940Z,76.43
2024-02-19T08:16:44.830Z,76.23
2024-02-19T08:17:41.946Z,76.12
2024-02-19T08:18:42.102Z,75.92
2024-02-19T08:19:41.909Z,75.92
2024-02-19T08:20:41.858Z,75.89
2024-02-19T08:21:41.886Z,75.99
2024-02-19T08:22:44.513Z,76.19
2024-02-19T08:23:41.838Z,76.19
2024-02-19T08:24:41.867Z,76.29
2024-02-19T08:25:41.832Z,76.29
2024-02-19T08:26:41.792Z,76.09
2024-02-19T08:27:41.806Z,75.89
2024-02-19T08:28:41.786Z,75.75
2024-02-19T08:29:41.764Z,75.24
2024-02-19T08:30:41.762Z,75.13
2024-02-19T08:31:41.745Z,75.13
2024-02-19T08:32:41.782Z,75.04
2024-02-19T08:33:41.782Z,74.93
2024-02-19T08:34:41.761Z,74.73
2024-02-19T08:35:41.792Z,74.83
2024-02-19T08:36:41.749Z,74.73
2024-02-19T08:37:41.711Z,74.59
2024-02-19T08:38:41.709Z,74.52
2024-02-19T08:39:42.698Z,74.49
2024-02-19T08:40:41.680Z,74.49
2024-02-19T08:41:41.636Z,73.88
2024-02-19T08:42:41.659Z,74.22
2024-02-19T08:43:41.624Z,74.32
2024-02-19T08:44:41.618Z,74.01
2024-02-19T08:45:41.860Z,74.22
2024-02-19T08:46:41.577Z,74.22
2024-02-19T08:47:41.602Z,74.32
2024-02-19T08:48:41.606Z,74.42
2024-02-19T08:49:41.767Z,74.63
2024-02-19T08:50:41.552Z,74.69
2024-02-19T08:51:41.599Z,74.59
2024-02-19T08:52:41.521Z,74.49
2024-02-19T08:53:41.501Z,74.49
2024-02-19T08:54:41.555Z,74.29
2024-02-19T08:55:41.507Z,74.38
2024-02-19T08:56:41.476Z,74.49
2024-02-19T08:57:41.513Z,74.59
2024-02-19T08:58:41.453Z,74.35
2024-02-19T08:59:41.477Z,74.05
2024-02-19T09:00:41.545Z,73.94
2024-02-19T09:01:41.553Z,73.94
2024-02-19T09:02:41.405Z,74.05
2024-02-19T09:03:41.514Z,73.74
2024-02-19T09:04:41.524Z,73.84
2024-02-19T09:05:41.394Z,73.84
2024-02-19T09:06:41.489Z,73.74
2024-02-19T09:07:41.385Z,73.54
2024-02-19T09:08:41.346Z,73.23
2024-02-19T09:09:41.357Z,73.03
2024-02-19T09:10:41.408Z,73.10
2024-02-19T09:11:41.370Z,72.89
2024-02-19T09:12:41.340Z,72.69
2024-02-19T09:13:42.686Z,72.48
2024-02-19T09:14:41.294Z,72.65
2024-02-19T09:15:41.291Z,72.65
2024-02-19T09:16:41.254Z,72.45
2024-02-19T09:17:41.274Z,72.45
2024-02-19T09:18:41.293Z,72.55
2024-02-19T09:19:41.344Z,72.45
2024-02-19T09:20:41.247Z,72.21
2024-02-19T09:21:41.245Z,72.11
2024-02-19T09:22:41.193Z,72.04
2024-02-19T09:23:41.176Z,72.04
2024-02-19T09:24:41.191Z,72.14
2024-02-19T09:25:41.202Z,72.24
2024-02-19T09:26:41.148Z,72.34
2024-02-19T09:27:41.267Z,72.45
2024-02-19T09:28:41.128Z,72.31
2024-02-19T09:29:41.124Z,72.41
2024-02-19T09:30:41.263Z,72.21
2024-02-19T09:31:41.091Z,71.91
2024-02-19T09:32:41.106Z,71.80
2024-02-19T09:33:41.170Z,71.87
2024-02-19T09:34:41.161Z,71.47
2024-02-19T09:35:41.056Z,71.33
2024-02-19T09:36:41.077Z,71.33
2024-02-19T09:37:41.054Z,71.23
2024-02-19T09:38:41.029Z,70.82
2024-02-19T09:39:41.096Z,70.72
2024-02-19T09:40:40.998Z,70.79
2024-02-19T09:41:40.981Z,70.99
2024-02-19T09:42:41.158Z,70.99
2024-02-19T09:43:40.966Z,70.99
2024-02-19T09:44:40.955Z,71.06
2024-02-19T09:45:40.982Z,70.96
2024-02-19T09:46:41.377Z,70.86
2024-02-19T09:47:40.978Z,70.86
2024-02-19T09:48:41.098Z,70.45
2024-02-19T09:49:40.955Z,70.25
2024-02-19T09:50:40.889Z,70.04
2024-02-19T09:51:41.471Z,69.64
2024-02-19T09:52:40.929Z,69.60
2024-02-19T09:53:40.853Z,69.70
2024-02-19T09:54:40.863Z,69.60
2024-02-19T09:55:40.835Z,69.43
2024-02-19T09:56:40.840Z,69.74
2024-02-19T09:57:40.889Z,69.84
2024-02-19T09:58:40.855Z,69.84
2024-02-19T09:59:40.789Z,69.84
2024-02-19T10:00:40.878Z,70.14
2024-02-19T10:01:40.847Z,69.84
2024-02-19T10:02:40.790Z,69.84
2024-02-19T10:03:40.757Z,69.84
2024-02-19T10:04:40.827Z,70.04
2024-02-19T10:05:40.808Z,70.18
2024-02-19T10:06:42.133Z,70.07
2024-02-19T10:07:40.837Z,70.28
2024-02-19T10:08:40.694Z,70.28
2024-02-19T10:09:40.716Z,70.48
2024-02-19T10:10:40.844Z,70.68
2024-02-19T10:11:40.837Z,70.72
2024-02-19T10:12:40.718Z,70.92
2024-02-19T10:13:40.635Z,70.89
2024-02-19T10:14:40.634Z,71.09
2024-02-19T10:15:40.693Z,70.89
2024-02-19T10:16:40.631Z,70.89
2024-02-19T10:17:40.634Z,70.99
2024-02-19T10:18:40.736Z,71.19
2024-02-19T10:19:40.591Z,71.40
2024-02-19T10:20:40.641Z,71.30
2024-02-19T10:21:40.613Z,71.19
2024-02-19T10:22:40.552Z,71.30
2024-02-19T10:23:40.583Z,71.70
2024-02-19T10:24:40.536Z,71.09
2024-02-19T10:25:40.515Z,71.19
2024-02-19T10:26:40.496Z,71.06
2024-02-19T10:27:40.506Z,70.89
2024-02-19T10:28:40.471Z,70.89
2024-02-19T10:29:40.451Z,71.09
2024-02-19T10:30:40.502Z,71.19
2024-02-19T10:31:40.432Z,71.30
2024-02-19T10:32:40.490Z,71.40
2024-02-19T10:33:40.651Z,71.43
2024-02-19T10:34:40.448Z,71.43
2024-02-19T10:35:40.408Z,71.73
2024-02-19T10:36:40.494Z,71.94
2024-02-19T10:37:40.370Z,71.84
2024-02-19T10:38:40.367Z,71.84
2024-02-19T10:39:40.374Z,71.64
2024-02-19T10:40:40.346Z,71.40
2024-02-19T10:41:40.433Z,71.30
2024-02-19T10:42:40.364Z,71.09
2024-02-19T10:43:40.316Z,70.89
2024-02-19T10:44:40.308Z,70.79
2024-02-19T10:45:40.351Z,70.79
2024-02-19T10:46:40.299Z,71.19
2024-02-19T10:47:40.282Z,71.09
2024-02-19T10:48:40.359Z,71.30
2024-02-19T10:49:40.325Z,71.50
2024-02-19T10:50:40.245Z,71.50
2024-02-19T10:51:40.281Z,71.80
2024-02-19T10:52:40.216Z,71.84
2024-02-19T10:53:40.223Z,72.25
2024-02-19T10:54:40.257Z,72.14
2024-02-19T10:55:49.483Z,72.25
2024-02-19T10:56:40.215Z,72.34
2024-02-19T10:57:40.227Z,72.65
2024-02-19T10:58:40.172Z,72.82
2024-02-19T10:59:40.137Z,72.52
2024-02-19T11:00:40.152Z,72.11
2024-02-19T11:01:40.185Z,72.31
2024-02-19T11:02:40.129Z,72.11
2024-02-19T11:03:40.143Z,72.01
2024-02-19T11:04:40.178Z,71.80
2024-02-19T11:05:40.160Z,71.57
2024-02-19T11:06:40.081Z,72.38
2024-02-19T11:07:40.061Z,71.47
2024-02-19T11:08:40.034Z,71.47
2024-02-19T11:09:40.046Z,71.47
2024-02-19T11:10:40.114Z,71.57
2024-02-19T11:11:40.066Z,72.01
2024-02-19T11:12:40.041Z,72.21
2024-02-19T11:13:40.010Z,72.41
2024-02-19T11:14:39.971Z,72.31
2024-02-19T11:15:39.961Z,72.21
2024-02-19T11:16:39.962Z,71.91
2024-02-19T11:17:39.940Z,72.11
2024-02-19T11:18:40.042Z,71.60
2024-02-19T11:19:40.355Z,71.80
2024-02-19T11:20:39.919Z,71.91
2024-02-19T11:21:39.917Z,72.04
2024-02-19T11:22:39.886Z,71.84
2024-02-19T11:23:39.890Z,71.64
2024-02-19T11:24:39.866Z,72.04
2024-02-19T11:25:39.864Z,72.04
2024-02-19T11:26:39.857Z,71.94
2024-02-19T11:27:39.827Z,71.84
2024-02-19T11:28:39.815Z,71.91
2024-02-19T11:29:46.640Z,71.70
2024-02-19T11:30:39.892Z,71.60
2024-02-19T11:31:39.785Z,70.99
2024-02-19T11:32:39.782Z,70.92
2024-02-19T11:33:39.758Z,71.02
2024-02-19T11:34:39.793Z,71.12
2024-02-19T11:35:39.869Z,71.12
2024-02-19T11:36:39.736Z,71.23
2024-02-19T11:37:39.738Z,71.23
2024-02-19T11:38:39.716Z,70.82
2024-02-19T11:39:39.705Z,70.62
2024-02-19T11:40:39.773Z,70.62
2024-02-19T11:41:39.681Z,70.82
2024-02-19T11:42:39.669Z,70.72
2024-02-19T11:43:39.660Z,70.92
2024-02-19T11:44:39.656Z,71.02
2024-02-19T11:45:39.662Z,71.12
2024-02-19T11:46:39.625Z,71.02
2024-02-19T11:47:39.623Z,71.12
2024-02-19T11:48:39.628Z,70.92
2024-02-19T11:49:39.657Z,70.82
2024-02-19T11:50:42.558Z,71.02
2024-02-19T11:51:39.568Z,71.02
2024-02-19T11:52:39.648Z,70.82
2024-02-19T11:53:39.563Z,70.72
2024-02-19T11:54:39.574Z,70.51
2024-02-19T11:55:39.558Z,70.92
2024-02-19T11:56:39.517Z,71.12
2024-02-19T11:57:39.513Z,71.33
2024-02-19T11:58:39.555Z,71.53
2024-02-19T11:59:39.490Z,71.43
2024-02-19T12:00:39.515Z,71.56
2024-02-19T12:01:39.554Z,71.64
2024-02-19T12:02:39.468Z,71.64
2024-02-19T12:03:39.470Z,71.64
2024-02-19T12:04:39.728Z,71.64
2024-02-19T12:05:39.457Z,71.73
2024-02-19T12:06:39.472Z,72.04
2024-02-19T12:07:39.440Z,72.14
2024-02-19T12:08:39.402Z,72.34
2024-02-19T12:09:39.399Z,72.34
2024-02-19T12:10:39.388Z,72.25
2024-02-19T12:11:39.388Z,71.94
2024-02-19T12:12:39.355Z,72.14
2024-02-19T12:13:39.387Z,71.94
2024-02-19T12:14:39.320Z,72.04
2024-02-19T12:15:39.317Z,72.17
2024-02-19T12:16:39.315Z,72.04
2024-02-19T12:17:39.326Z,71.84
2024-02-19T12:18:39.329Z,71.84
2024-02-19T12:19:39.328Z,71.73
2024-02-19T12:20:39.259Z,71.43
2024-02-19T12:21:39.262Z,71.43
2024-02-19T12:22:39.262Z,71.02
2024-02-19T12:23:39.221Z,71.02
2024-02-19T12:24:39.211Z,70.92
2024-02-19T12:25:39.239Z,70.92
2024-02-19T12:26:39.207Z,70.92
2024-02-19T12:27:39.179Z,70.41
2024-02-19T12:28:39.186Z,70.62
2024-02-19T12:29:39.158Z,70.72
2024-02-19T12:30:39.143Z,70.58
2024-02-19T12:31:39.146Z,70.48
2024-02-19T12:32:39.169Z,70.38
2024-02-19T12:33:39.576Z,70.07
2024-02-19T12:34:39.199Z,70.07
2024-02-19T12:35:41.519Z,69.67
2024-02-19T12:36:39.128Z,69.77
2024-02-19T12:37:39.126Z,69.53
2024-02-19T12:38:39.061Z,69.23
2024-02-19T12:39:39.880Z,69.36
2024-02-19T12:40:39.384Z,69.43
2024-02-19T12:41:39.032Z,69.33
2024-02-19T12:42:39.015Z,69.33
2024-02-19T12:43:39.037Z,69.33
2024-02-19T12:44:39.000Z,69.23
2024-02-19T12:45:38.988Z,69.13
2024-02-19T12:46:39.102Z,68.92
2024-02-19T12:47:39.099Z,68.82
2024-02-19T12:48:39.042Z,68.92
2024-02-19T12:49:40.203Z,68.62
2024-02-19T12:50:39.001Z,68.32
2024-02-19T12:51:39.018Z,68.62
2024-02-19T12:52:39.017Z,68.62